sensor_id;sensor_type;location;lat;lon;timestamp;P1;durP1;ratioP1;P2;durP2;ratioP2
68108;SDS011;54893;49.864;19.084;2024-03-22T00:04:03;60.67;;;27.97;;
68108;SDS011;54893;49.864;19.084;2024-03-22T00:09:04;59.97;;;26.87;;
68108;SDS011;54893;49.864;19.084;2024-03-22T00:14:05;66.63;;;25.10;;
68108;SDS011;54893;49.864;19.084;2024-03-22T00:19:05;62.70;;;24.83;;
68108;SDS011;54893;49.864;19.084;2024-03-22T00:24:06;58.57;;;25.10;;
68108;SDS011;54893;49.864;19.084;2024-03-22T00:29:06;64.07;;;26.20;;
68108;SDS011;54893;49.864;19.084;2024-03-22T00:34:07;64.77;;;26.40;;
68108;SDS011;54893;49.864;19.084;2024-03-22T00:39:07;69.07;;;28.90;;
68108;SDS011;54893;49.864;19.084;2024-03-22T00:44:07;81.47;;;34.50;;
68108;SDS011;54893;49.864;19.084;2024-03-22T00:49:08;71.20;;;31.77;;
68108;SDS011;54893;49.864;19.084;2024-03-22T00:54:08;59.43;;;27.87;;
68108;SDS011;54893;49.864;19.084;2024-03-22T00:59:09;62.17;;;26.83;;
68108;SDS011;54893;49.864;19.084;2024-03-22T01:04:09;63.80;;;26.37;;
68108;SDS011;54893;49.864;19.084;2024-03-22T01:09:09;62.43;;;27.57;;
68108;SDS011;54893;49.864;19.084;2024-03-22T01:14:10;67.83;;;28.33;;
68108;SDS011;54893;49.864;19.084;2024-03-22T01:19:10;62.23;;;27.67;;
68108;SDS011;54893;49.864;19.084;2024-03-22T01:24:10;67.80;;;27.73;;
68108;SDS011;54893;49.864;19.084;2024-03-22T01:29:11;62.77;;;26.93;;
68108;SDS011;54893;49.864;19.084;2024-03-22T01:34:11;67.87;;;27.20;;
68108;SDS011;54893;49.864;19.084;2024-03-22T01:39:12;65.57;;;26.80;;
68108;SDS011;54893;49.864;19.084;2024-03-22T01:44:14;65.00;;;27.38;;
68108;SDS011;54893;49.864;19.084;2024-03-22T01:49:15;55.53;;;25.90;;
68108;SDS011;54893;49.864;19.084;2024-03-22T01:54:16;64.67;;;25.70;;
68108;SDS011;54893;49.864;19.084;2024-03-22T01:59:17;57.75;;;25.25;;
68108;SDS011;54893;49.864;19.084;2024-03-22T02:04:18;56.17;;;24.67;;
68108;SDS011;54893;49.864;19.084;2024-03-22T02:09:18;51.83;;;24.43;;
68108;SDS011;54893;49.864;19.084;2024-03-22T02:14:20;53.25;;;22.48;;
68108;SDS011;54893;49.864;19.084;2024-03-22T02:19:21;53.10;;;21.87;;
68108;SDS011;54893;49.864;19.084;2024-03-22T02:24:21;53.23;;;24.20;;
68108;SDS011;54893;49.864;19.084;2024-03-22T02:29:22;53.60;;;23.33;;
68108;SDS011;54893;49.864;19.084;2024-03-22T02:34:22;57.53;;;25.73;;
68108;SDS011;54893;49.864;19.084;2024-03-22T02:39:22;53.40;;;25.70;;
68108;SDS011;54893;49.864;19.084;2024-03-22T02:44:23;47.37;;;22.77;;
68108;SDS011;54893;49.864;19.084;2024-03-22T02:49:24;43.77;;;19.03;;
68108;SDS011;54893;49.864;19.084;2024-03-22T02:54:25;52.13;;;22.60;;
68108;SDS011;54893;49.864;19.084;2024-03-22T02:59:25;49.03;;;22.30;;
68108;SDS011;54893;49.864;19.084;2024-03-22T03:04:26;50.23;;;24.03;;
68108;SDS011;54893;49.864;19.084;2024-03-22T03:09:27;45.80;;;20.50;;
68108;SDS011;54893;49.864;19.084;2024-03-22T03:14:27;46.00;;;19.77;;
68108;SDS011;54893;49.864;19.084;2024-03-22T03:19:27;39.57;;;19.40;;
68108;SDS011;54893;49.864;19.084;2024-03-22T03:24:28;47.50;;;21.57;;
68108;SDS011;54893;49.864;19.084;2024-03-22T03:29:28;41.80;;;19.50;;
68108;SDS011;54893;49.864;19.084;2024-03-22T03:34:29;46.43;;;22.03;;
68108;SDS011;54893;49.864;19.084;2024-03-22T03:39:29;44.80;;;20.77;;
68108;SDS011;54893;49.864;19.084;2024-03-22T03:44:29;44.30;;;19.53;;
68108;SDS011;54893;49.864;19.084;2024-03-22T03:49:30;40.30;;;17.87;;
68108;SDS011;54893;49.864;19.084;2024-03-22T03:54:30;39.40;;;18.67;;
68108;SDS011;54893;49.864;19.084;2024-03-22T03:59:31;50.73;;;24.27;;
68108;SDS011;54893;49.864;19.084;2024-03-22T04:04:31;55.40;;;27.08;;
68108;SDS011;54893;49.864;19.084;2024-03-22T04:09:32;47.25;;;21.33;;
68108;SDS011;54893;49.864;19.084;2024-03-22T04:14:34;48.50;;;21.90;;
68108;SDS011;54893;49.864;19.084;2024-03-22T04:19:34;49.50;;;24.53;;
68108;SDS011;54893;49.864;19.084;2024-03-22T04:24:34;57.90;;;26.40;;
68108;SDS011;54893;49.864;19.084;2024-03-22T04:29:35;51.73;;;22.17;;
68108;SDS011;54893;49.864;19.084;2024-03-22T04:34:35;48.50;;;21.00;;
68108;SDS011;54893;49.864;19.084;2024-03-22T04:39:35;52.60;;;21.27;;
68108;SDS011;54893;49.864;19.084;2024-03-22T04:44:36;51.33;;;24.80;;
68108;SDS011;54893;49.864;19.084;2024-03-22T04:49:37;47.30;;;21.23;;
68108;SDS011;54893;49.864;19.084;2024-03-22T04:54:37;50.63;;;22.90;;
68108;SDS011;54893;49.864;19.084;2024-03-22T04:59:37;50.33;;;22.50;;
68108;SDS011;54893;49.864;19.084;2024-03-22T05:04:38;53.53;;;23.57;;
68108;SDS011;54893;49.864;19.084;2024-03-22T05:09:38;58.63;;;24.67;;
68108;SDS011;54893;49.864;19.084;2024-03-22T05:14:38;57.33;;;24.27;;
68108;SDS011;54893;49.864;19.084;2024-03-22T05:19:39;52.33;;;23.27;;
68108;SDS011;54893;49.864;19.084;2024-03-22T05:24:39;51.10;;;23.63;;
68108;SDS011;54893;49.864;19.084;2024-03-22T05:29:40;54.20;;;24.73;;
68108;SDS011;54893;49.864;19.084;2024-03-22T05:34:40;51.50;;;21.13;;
68108;SDS011;54893;49.864;19.084;2024-03-22T05:39:40;48.23;;;21.27;;
68108;SDS011;54893;49.864;19.084;2024-03-22T05:44:42;48.05;;;19.90;;
68108;SDS011;54893;49.864;19.084;2024-03-22T05:49:44;44.20;;;20.10;;
68108;SDS011;54893;49.864;19.084;2024-03-22T05:54:44;51.60;;;22.13;;
68108;SDS011;54893;49.864;19.084;2024-03-22T05:59:44;52.77;;;24.60;;
68108;SDS011;54893;49.864;19.084;2024-03-22T06:04:45;54.27;;;22.40;;
68108;SDS011;54893;49.864;19.084;2024-03-22T06:09:45;55.03;;;23.87;;
68108;SDS011;54893;49.864;19.084;2024-03-22T06:14:46;49.63;;;21.37;;
68108;SDS011;54893;49.864;19.084;2024-03-22T06:19:48;54.67;;;25.70;;
68108;SDS011;54893;49.864;19.084;2024-03-22T06:24:48;53.73;;;22.37;;
68108;SDS011;54893;49.864;19.084;2024-03-22T06:29:49;56.53;;;25.73;;
68108;SDS011;54893;49.864;19.084;2024-03-22T06:34:49;50.83;;;22.13;;
68108;SDS011;54893;49.864;19.084;2024-03-22T06:39:50;104.43;;;54.33;;
68108;SDS011;54893;49.864;19.084;2024-03-22T06:44:50;64.33;;;28.40;;
68108;SDS011;54893;49.864;19.084;2024-03-22T06:49:50;48.70;;;25.90;;
68108;SDS011;54893;49.864;19.084;2024-03-22T06:54:51;46.10;;;18.83;;
68108;SDS011;54893;49.864;19.084;2024-03-22T06:59:53;43.42;;;18.67;;
68108;SDS011;54893;49.864;19.084;2024-03-22T07:04:53;36.40;;;16.50;;
68108;SDS011;54893;49.864;19.084;2024-03-22T07:09:54;33.60;;;13.60;;
68108;SDS011;54893;49.864;19.084;2024-03-22T07:14:58;31.50;;;16.73;;
68108;SDS011;54893;49.864;19.084;2024-03-22T07:19:59;27.77;;;14.03;;
68108;SDS011;54893;49.864;19.084;2024-03-22T07:25:00;26.87;;;12.73;;
68108;SDS011;54893;49.864;19.084;2024-03-22T07:30:00;30.93;;;13.57;;
68108;SDS011;54893;49.864;19.084;2024-03-22T07:35:01;31.73;;;12.50;;
68108;SDS011;54893;49.864;19.084;2024-03-22T07:40:02;29.53;;;13.43;;
68108;SDS011;54893;49.864;19.084;2024-03-22T07:45:02;26.15;;;11.23;;
68108;SDS011;54893;49.864;19.084;2024-03-22T07:50:04;25.90;;;10.23;;
68108;SDS011;54893;49.864;19.084;2024-03-22T07:55:05;33.67;;;11.95;;
68108;SDS011;54893;49.864;19.084;2024-03-22T08:00:06;32.47;;;12.85;;
68108;SDS011;54893;49.864;19.084;2024-03-22T08:05:08;33.97;;;12.57;;
68108;SDS011;54893;49.864;19.084;2024-03-22T08:10:08;40.20;;;15.27;;
68108;SDS011;54893;49.864;19.084;2024-03-22T08:15:09;42.72;;;15.52;;
68108;SDS011;54893;49.864;19.084;2024-03-22T08:20:09;45.13;;;17.87;;
68108;SDS011;54893;49.864;19.084;2024-03-22T08:25:10;50.93;;;21.00;;
68108;SDS011;54893;49.864;19.084;2024-03-22T08:30:10;53.80;;;20.23;;
68108;SDS011;54893;49.864;19.084;2024-03-22T08:35:11;48.78;;;20.70;;
68108;SDS011;54893;49.864;19.084;2024-03-22T08:40:12;43.20;;;18.23;;
68108;SDS011;54893;49.864;19.084;2024-03-22T08:45:13;46.13;;;20.02;;
68108;SDS011;54893;49.864;19.084;2024-03-22T08:50:14;47.07;;;19.60;;
68108;SDS011;54893;49.864;19.084;2024-03-22T08:55:14;51.23;;;19.53;;
68108;SDS011;54893;49.864;19.084;2024-03-22T09:00:16;37.15;;;15.52;;
68108;SDS011;54893;49.864;19.084;2024-03-22T09:05:17;31.73;;;12.13;;
68108;SDS011;54893;49.864;19.084;2024-03-22T09:10:18;28.92;;;11.65;;
68108;SDS011;54893;49.864;19.084;2024-03-22T09:15:18;31.20;;;14.93;;
68108;SDS011;54893;49.864;19.084;2024-03-22T09:20:19;26.07;;;10.40;;
68108;SDS011;54893;49.864;19.084;2024-03-22T09:25:19;32.73;;;13.93;;
68108;SDS011;54893;49.864;19.084;2024-03-22T09:30:20;30.17;;;12.90;;
68108;SDS011;54893;49.864;19.084;2024-03-22T09:35:20;32.00;;;13.93;;
68108;SDS011;54893;49.864;19.084;2024-03-22T09:40:21;29.60;;;12.40;;
68108;SDS011;54893;49.864;19.084;2024-03-22T09:45:23;31.23;;;12.70;;
68108;SDS011;54893;49.864;19.084;2024-03-22T09:50:24;28.20;;;11.77;;
68108;SDS011;54893;49.864;19.084;2024-03-22T09:55:25;30.93;;;12.63;;
68108;SDS011;54893;49.864;19.084;2024-03-22T10:00:25;36.53;;;14.93;;
68108;SDS011;54893;49.864;19.084;2024-03-22T10:05:26;40.63;;;15.27;;
68108;SDS011;54893;49.864;19.084;2024-03-22T10:10:26;30.67;;;12.63;;
68108;SDS011;54893;49.864;19.084;2024-03-22T10:15:27;30.13;;;12.65;;
68108;SDS011;54893;49.864;19.084;2024-03-22T10:20:27;32.80;;;14.55;;
68108;SDS011;54893;49.864;19.084;2024-03-22T10:25:28;28.20;;;10.90;;
68108;SDS011;54893;49.864;19.084;2024-03-22T10:30:29;29.73;;;11.27;;
68108;SDS011;54893;49.864;19.084;2024-03-22T10:35:30;31.65;;;11.48;;
68108;SDS011;54893;49.864;19.084;2024-03-22T10:40:32;31.98;;;12.75;;
68108;SDS011;54893;49.864;19.084;2024-03-22T10:45:33;28.33;;;12.43;;
68108;SDS011;54893;49.864;19.084;2024-03-22T10:50:36;30.27;;;13.05;;
68108;SDS011;54893;49.864;19.084;2024-03-22T10:55:41;30.95;;;13.10;;
68108;SDS011;54893;49.864;19.084;2024-03-22T11:00:43;33.78;;;13.73;;
68108;SDS011;54893;49.864;19.084;2024-03-22T11:05:48;31.10;;;13.77;;
68108;SDS011;54893;49.864;19.084;2024-03-22T11:10:50;42.60;;;21.33;;
68108;SDS011;54893;49.864;19.084;2024-03-22T11:15:50;40.37;;;16.90;;
68108;SDS011;54893;49.864;19.084;2024-03-22T11:20:51;35.47;;;14.80;;
68108;SDS011;54893;49.864;19.084;2024-03-22T11:25:51;34.67;;;14.50;;
68108;SDS011;54893;49.864;19.084;2024-03-22T11:30:52;29.90;;;12.43;;
68108;SDS011;54893;49.864;19.084;2024-03-22T11:35:53;27.80;;;12.02;;
68108;SDS011;54893;49.864;19.084;2024-03-22T11:40:54;29.40;;;11.00;;
68108;SDS011;54893;49.864;19.084;2024-03-22T11:45:57;29.25;;;13.10;;
68108;SDS011;54893;49.864;19.084;2024-03-22T11:50:58;32.83;;;13.30;;
68108;SDS011;54893;49.864;19.084;2024-03-22T11:56:00;28.65;;;11.82;;
68108;SDS011;54893;49.864;19.084;2024-03-22T12:01:03;29.47;;;15.47;;
68108;SDS011;54893;49.864;19.084;2024-03-22T12:06:04;31.38;;;16.33;;
68108;SDS011;54893;49.864;19.084;2024-03-22T12:11:04;29.63;;;13.95;;
68108;SDS011;54893;49.864;19.084;2024-03-22T12:16:07;30.03;;;13.90;;
68108;SDS011;54893;49.864;19.084;2024-03-22T12:21:07;31.70;;;15.70;;
68108;SDS011;54893;49.864;19.084;2024-03-22T12:26:08;31.07;;;17.93;;
68108;SDS011;54893;49.864;19.084;2024-03-22T12:31:08;33.87;;;14.47;;
68108;SDS011;54893;49.864;19.084;2024-03-22T12:36:10;31.45;;;16.50;;
68108;SDS011;54893;49.864;19.084;2024-03-22T12:41:11;34.37;;;14.60;;
68108;SDS011;54893;49.864;19.084;2024-03-22T12:46:11;33.47;;;17.30;;
68108;SDS011;54893;49.864;19.084;2024-03-22T12:51:11;31.70;;;17.37;;
68108;SDS011;54893;49.864;19.084;2024-03-22T12:56:12;32.63;;;18.07;;
68108;SDS011;54893;49.864;19.084;2024-03-22T13:01:12;34.60;;;18.27;;
68108;SDS011;54893;49.864;19.084;2024-03-22T13:06:12;33.60;;;15.83;;
68108;SDS011;54893;49.864;19.084;2024-03-22T13:11:13;36.57;;;19.73;;
68108;SDS011;54893;49.864;19.084;2024-03-22T13:16:14;29.77;;;16.33;;
68108;SDS011;54893;49.864;19.084;2024-03-22T13:21:14;30.60;;;18.52;;
68108;SDS011;54893;49.864;19.084;2024-03-22T13:26:15;26.27;;;14.53;;
68108;SDS011;54893;49.864;19.084;2024-03-22T13:31:15;30.10;;;16.60;;
68108;SDS011;54893;49.864;19.084;2024-03-22T13:36:16;26.90;;;13.33;;
68108;SDS011;54893;49.864;19.084;2024-03-22T13:41:18;26.57;;;13.23;;
68108;SDS011;54893;49.864;19.084;2024-03-22T13:46:18;28.43;;;14.83;;
68108;SDS011;54893;49.864;19.084;2024-03-22T13:51:18;29.73;;;13.57;;
68108;SDS011;54893;49.864;19.084;2024-03-22T13:56:19;28.60;;;14.13;;
68108;SDS011;54893;49.864;19.084;2024-03-22T14:01:19;28.00;;;15.03;;
68108;SDS011;54893;49.864;19.084;2024-03-22T14:06:19;27.90;;;13.13;;
68108;SDS011;54893;49.864;19.084;2024-03-22T14:11:20;28.47;;;15.93;;
68108;SDS011;54893;49.864;19.084;2024-03-22T14:16:21;27.08;;;13.00;;
68108;SDS011;54893;49.864;19.084;2024-03-22T14:21:22;28.73;;;14.13;;
68108;SDS011;54893;49.864;19.084;2024-03-22T14:26:22;25.60;;;13.37;;
68108;SDS011;54893;49.864;19.084;2024-03-22T14:31:25;28.40;;;15.77;;
68108;SDS011;54893;49.864;19.084;2024-03-22T14:36:26;27.17;;;12.90;;
68108;SDS011;54893;49.864;19.084;2024-03-22T14:41:26;26.97;;;13.07;;
68108;SDS011;54893;49.864;19.084;2024-03-22T14:46:27;21.97;;;11.43;;
68108;SDS011;54893;49.864;19.084;2024-03-22T14:51:29;25.17;;;11.63;;
68108;SDS011;54893;49.864;19.084;2024-03-22T14:56:29;24.10;;;11.93;;
68108;SDS011;54893;49.864;19.084;2024-03-22T15:01:30;23.70;;;10.40;;
68108;SDS011;54893;49.864;19.084;2024-03-22T15:06:30;17.35;;;9.57;;
68108;SDS011;54893;49.864;19.084;2024-03-22T15:11:30;16.77;;;8.77;;
68108;SDS011;54893;49.864;19.084;2024-03-22T15:16:31;17.60;;;9.67;;
68108;SDS011;54893;49.864;19.084;2024-03-22T15:21:31;16.05;;;8.25;;
68108;SDS011;54893;49.864;19.084;2024-03-22T15:26:32;21.70;;;10.70;;
68108;SDS011;54893;49.864;19.084;2024-03-22T15:31:32;17.93;;;7.53;;
68108;SDS011;54893;49.864;19.084;2024-03-22T15:36:33;16.40;;;7.93;;
68108;SDS011;54893;49.864;19.084;2024-03-22T15:41:33;13.93;;;6.60;;
68108;SDS011;54893;49.864;19.084;2024-03-22T15:46:34;14.07;;;6.80;;
68108;SDS011;54893;49.864;19.084;2024-03-22T15:51:34;15.37;;;6.73;;
68108;SDS011;54893;49.864;19.084;2024-03-22T15:56:34;13.60;;;7.77;;
68108;SDS011;54893;49.864;19.084;2024-03-22T16:01:35;14.53;;;6.17;;
68108;SDS011;54893;49.864;19.084;2024-03-22T16:06:35;14.27;;;6.33;;
68108;SDS011;54893;49.864;19.084;2024-03-22T16:11:35;13.63;;;6.03;;
68108;SDS011;54893;49.864;19.084;2024-03-22T16:16:36;12.57;;;5.53;;
68108;SDS011;54893;49.864;19.084;2024-03-22T16:21:36;14.57;;;6.60;;
68108;SDS011;54893;49.864;19.084;2024-03-22T16:26:37;14.50;;;7.03;;
68108;SDS011;54893;49.864;19.084;2024-03-22T16:31:37;16.00;;;7.07;;
68108;SDS011;54893;49.864;19.084;2024-03-22T16:36:38;20.03;;;8.27;;
68108;SDS011;54893;49.864;19.084;2024-03-22T16:41:38;20.63;;;7.57;;
68108;SDS011;54893;49.864;19.084;2024-03-22T16:46:39;14.37;;;6.53;;
68108;SDS011;54893;49.864;19.084;2024-03-22T16:51:39;23.83;;;7.13;;
68108;SDS011;54893;49.864;19.084;2024-03-22T16:56:40;18.07;;;7.20;;
68108;SDS011;54893;49.864;19.084;2024-03-22T17:01:40;16.00;;;6.67;;
68108;SDS011;54893;49.864;19.084;2024-03-22T17:06:40;21.03;;;6.90;;
68108;SDS011;54893;49.864;19.084;2024-03-22T17:11:41;15.93;;;6.97;;
68108;SDS011;54893;49.864;19.084;2024-03-22T17:16:41;17.63;;;7.50;;
68108;SDS011;54893;49.864;19.084;2024-03-22T17:21:42;21.50;;;7.50;;
68108;SDS011;54893;49.864;19.084;2024-03-22T17:26:43;20.00;;;8.13;;
68108;SDS011;54893;49.864;19.084;2024-03-22T17:31:43;22.13;;;8.95;;
68108;SDS011;54893;49.864;19.084;2024-03-22T17:36:44;22.13;;;9.23;;
68108;SDS011;54893;49.864;19.084;2024-03-22T17:41:45;24.60;;;9.20;;
68108;SDS011;54893;49.864;19.084;2024-03-22T17:46:46;23.73;;;9.23;;
68108;SDS011;54893;49.864;19.084;2024-03-22T17:51:46;24.23;;;10.20;;
68108;SDS011;54893;49.864;19.084;2024-03-22T17:56:47;27.07;;;10.17;;
68108;SDS011;54893;49.864;19.084;2024-03-22T18:01:47;28.03;;;11.23;;
68108;SDS011;54893;49.864;19.084;2024-03-22T18:06:48;31.73;;;11.93;;
68108;SDS011;54893;49.864;19.084;2024-03-22T18:11:49;27.50;;;11.80;;
68108;SDS011;54893;49.864;19.084;2024-03-22T18:16:50;30.15;;;11.85;;
68108;SDS011;54893;49.864;19.084;2024-03-22T18:21:51;28.10;;;11.23;;
68108;SDS011;54893;49.864;19.084;2024-03-22T18:26:53;29.15;;;12.18;;
68108;SDS011;54893;49.864;19.084;2024-03-22T18:31:54;31.90;;;12.20;;
68108;SDS011;54893;49.864;19.084;2024-03-22T18:36:54;32.60;;;12.27;;
68108;SDS011;54893;49.864;19.084;2024-03-22T18:41:55;43.93;;;16.90;;
68108;SDS011;54893;49.864;19.084;2024-03-22T18:46:55;40.88;;;16.02;;
68108;SDS011;54893;49.864;19.084;2024-03-22T18:51:56;45.97;;;17.20;;
68108;SDS011;54893;49.864;19.084;2024-03-22T18:56:56;45.92;;;18.23;;
68108;SDS011;54893;49.864;19.084;2024-03-22T19:01:56;44.70;;;17.13;;
68108;SDS011;54893;49.864;19.084;2024-03-22T19:06:57;46.03;;;16.50;;
68108;SDS011;54893;49.864;19.084;2024-03-22T19:11:57;41.65;;;16.92;;
68108;SDS011;54893;49.864;19.084;2024-03-22T19:16:58;44.93;;;17.73;;
68108;SDS011;54893;49.864;19.084;2024-03-22T19:21:59;45.90;;;17.92;;
68108;SDS011;54893;49.864;19.084;2024-03-22T19:26:59;41.60;;;16.20;;
68108;SDS011;54893;49.864;19.084;2024-03-22T19:32:00;34.80;;;15.13;;
68108;SDS011;54893;49.864;19.084;2024-03-22T19:37:00;37.83;;;14.70;;
68108;SDS011;54893;49.864;19.084;2024-03-22T19:42:01;41.93;;;15.70;;
68108;SDS011;54893;49.864;19.084;2024-03-22T19:47:02;39.85;;;15.68;;
68108;SDS011;54893;49.864;19.084;2024-03-22T19:52:02;39.93;;;14.47;;
68108;SDS011;54893;49.864;19.084;2024-03-22T19:57:03;41.93;;;15.27;;
68108;SDS011;54893;49.864;19.084;2024-03-22T20:02:04;36.92;;;14.52;;
68108;SDS011;54893;49.864;19.084;2024-03-22T20:07:06;38.00;;;14.80;;
68108;SDS011;54893;49.864;19.084;2024-03-22T20:12:06;32.37;;;13.30;;
68108;SDS011;54893;49.864;19.084;2024-03-22T20:17:07;31.70;;;12.15;;
68108;SDS011;54893;49.864;19.084;2024-03-22T20:22:07;27.20;;;10.20;;
68108;SDS011;54893;49.864;19.084;2024-03-22T20:27:20;30.27;;;10.93;;
68108;SDS011;54893;49.864;19.084;2024-03-22T20:32:20;27.47;;;11.00;;
